Urbandale, Iowa
Current Conditions -  °F | °C
As of 5:54 AM on Sunday 23 Nov 2014 (Local Time) from KDSM Reporting Station
Drizzle Drizzle  
Wind Chill: 53°   Ceiling: 700
Heat Index: 53°   Visibility: 9mi
Dew Point: 50°   Wind: 9mph
Humidity: 89%   Direction: 190°S
Pressure: 29.55"   Gusts: NA
Location:  41.63°N, 93.71°W
Report Text: KDSM 231154Z 19008KT 9SM -DZ OVC007 12/10 A2955 RMK AO2 SLP007 P0000 60000 T01170100 10128 20117 56009
Loading
Personal Weather Stations






























Interactive Weather Map New forecast layout! Learn more

10-Day Weather Forecast

Advertisements
Track Severe Weather on mobile